sensor_id;sensor_type;location;lat;lon;timestamp;P1;durP1;ratioP1;P2;durP2;ratioP2
72801;SDS011;61891;55.818;37.084;2022-10-16T00:01:12;12.05;;;6.40;;
72801;SDS011;61891;55.818;37.084;2022-10-16T00:03:39;10.48;;;5.60;;
72801;SDS011;61891;55.818;37.084;2022-10-16T00:06:07;14.52;;;6.57;;
72801;SDS011;61891;55.818;37.084;2022-10-16T00:08:34;12.73;;;7.28;;
72801;SDS011;61891;55.818;37.084;2022-10-16T00:11:02;14.50;;;6.97;;
72801;SDS011;61891;55.818;37.084;2022-10-16T00:13:36;13.98;;;7.22;;
72801;SDS011;61891;55.818;37.084;2022-10-16T00:16:03;12.65;;;6.82;;
72801;SDS011;61891;55.818;37.084;2022-10-16T00:18:29;12.95;;;7.30;;
72801;SDS011;61891;55.818;37.084;2022-10-16T00:20:55;13.52;;;7.22;;
72801;SDS011;61891;55.818;37.084;2022-10-16T00:23:45;12.95;;;6.82;;
72801;SDS011;61891;55.818;37.084;2022-10-16T00:26:13;12.15;;;6.32;;
72801;SDS011;61891;55.818;37.084;2022-10-16T00:28:41;13.30;;;7.47;;
72801;SDS011;61891;55.818;37.084;2022-10-16T00:31:08;14.60;;;7.07;;
72801;SDS011;61891;55.818;37.084;2022-10-16T00:33:36;13.13;;;7.10;;
72801;SDS011;61891;55.818;37.084;2022-10-16T00:36:03;12.20;;;6.70;;
72801;SDS011;61891;55.818;37.084;2022-10-16T00:38:30;13.07;;;7.00;;
72801;SDS011;61891;55.818;37.084;2022-10-16T00:40:56;14.13;;;7.18;;
72801;SDS011;61891;55.818;37.084;2022-10-16T00:43:33;14.50;;;6.70;;
72801;SDS011;61891;55.818;37.084;2022-10-16T00:46:05;13.65;;;7.07;;
72801;SDS011;61891;55.818;37.084;2022-10-16T00:48:36;13.95;;;7.18;;
72801;SDS011;61891;55.818;37.084;2022-10-16T00:51:02;11.95;;;6.13;;
72801;SDS011;61891;55.818;37.084;2022-10-16T00:53:31;12.13;;;6.72;;
72801;SDS011;61891;55.818;37.084;2022-10-16T00:55:56;15.35;;;7.32;;
72801;SDS011;61891;55.818;37.084;2022-10-16T00:58:22;16.23;;;7.30;;
72801;SDS011;61891;55.818;37.084;2022-10-16T01:00:48;14.93;;;7.00;;
72801;SDS011;61891;55.818;37.084;2022-10-16T01:03:30;6.00;;;3.80;;
72801;SDS011;61891;55.818;37.084;2022-10-16T01:14:15;13.30;;;6.68;;
72801;SDS011;61891;55.818;37.084;2022-10-16T01:22:24;11.63;;;6.55;;
72801;SDS011;61891;55.818;37.084;2022-10-16T01:24:58;11.65;;;6.53;;
72801;SDS011;61891;55.818;37.084;2022-10-16T01:27:30;12.15;;;7.07;;
72801;SDS011;61891;55.818;37.084;2022-10-16T01:30:02;15.25;;;6.60;;
72801;SDS011;61891;55.818;37.084;2022-10-16T01:38:19;15.48;;;6.85;;
72801;SDS011;61891;55.818;37.084;2022-10-16T01:40:55;15.15;;;6.57;;
72801;SDS011;61891;55.818;37.084;2022-10-16T01:43:36;14.65;;;6.57;;
72801;SDS011;61891;55.818;37.084;2022-10-16T01:46:06;15.85;;;6.88;;
72801;SDS011;61891;55.818;37.084;2022-10-16T01:48:35;15.65;;;7.60;;
72801;SDS011;61891;55.818;37.084;2022-10-16T01:51:04;12.57;;;6.85;;
72801;SDS011;61891;55.818;37.084;2022-10-16T01:53:32;11.95;;;6.28;;
72801;SDS011;61891;55.818;37.084;2022-10-16T01:55:59;18.63;;;6.60;;
72801;SDS011;61891;55.818;37.084;2022-10-16T01:58:27;12.05;;;6.70;;
72801;SDS011;61891;55.818;37.084;2022-10-16T02:00:59;12.20;;;7.05;;
72801;SDS011;61891;55.818;37.084;2022-10-16T02:03:27;13.60;;;6.18;;
72801;SDS011;61891;55.818;37.084;2022-10-16T02:05:54;12.02;;;6.43;;
72801;SDS011;61891;55.818;37.084;2022-10-16T02:08:22;12.07;;;6.85;;
72801;SDS011;61891;55.818;37.084;2022-10-16T02:10:54;11.40;;;6.25;;
72801;SDS011;61891;55.818;37.084;2022-10-16T02:13:26;13.88;;;6.03;;
72801;SDS011;61891;55.818;37.084;2022-10-16T02:15:56;10.98;;;6.25;;
72801;SDS011;61891;55.818;37.084;2022-10-16T02:18:22;14.40;;;6.25;;
72801;SDS011;61891;55.818;37.084;2022-10-16T02:26:44;14.20;;;6.50;;
72801;SDS011;61891;55.818;37.084;2022-10-16T02:29:26;13.50;;;5.75;;
72801;SDS011;61891;55.818;37.084;2022-10-16T02:31:54;11.63;;;6.05;;
72801;SDS011;61891;55.818;37.084;2022-10-16T02:34:24;11.05;;;6.22;;
72801;SDS011;61891;55.818;37.084;2022-10-16T02:36:52;12.32;;;6.47;;
72801;SDS011;61891;55.818;37.084;2022-10-16T02:39:21;13.35;;;6.57;;
72801;SDS011;61891;55.818;37.084;2022-10-16T02:41:47;10.07;;;5.60;;
72801;SDS011;61891;55.818;37.084;2022-10-16T02:44:13;10.85;;;5.82;;
72801;SDS011;61891;55.818;37.084;2022-10-16T02:46:39;11.57;;;6.20;;
72801;SDS011;61891;55.818;37.084;2022-10-16T02:49:04;11.95;;;6.20;;
72801;SDS011;61891;55.818;37.084;2022-10-16T02:51:30;13.20;;;6.30;;
72801;SDS011;61891;55.818;37.084;2022-10-16T02:53:56;10.68;;;6.13;;
72801;SDS011;61891;55.818;37.084;2022-10-16T02:56:22;12.45;;;6.85;;
72801;SDS011;61891;55.818;37.084;2022-10-16T02:58:47;11.13;;;6.43;;
72801;SDS011;61891;55.818;37.084;2022-10-16T03:01:13;15.82;;;6.25;;
72801;SDS011;61891;55.818;37.084;2022-10-16T03:03:42;11.00;;;6.28;;
72801;SDS011;61891;55.818;37.084;2022-10-16T03:06:08;12.73;;;6.57;;
72801;SDS011;61891;55.818;37.084;2022-10-16T03:08:34;12.63;;;6.32;;
72801;SDS011;61891;55.818;37.084;2022-10-16T03:10:59;12.68;;;6.38;;
72801;SDS011;61891;55.818;37.084;2022-10-16T03:13:27;12.20;;;6.53;;
72801;SDS011;61891;55.818;37.084;2022-10-16T03:15:53;13.30;;;7.00;;
72801;SDS011;61891;55.818;37.084;2022-10-16T03:18:18;13.48;;;5.72;;
72801;SDS011;61891;55.818;37.084;2022-10-16T03:20:44;10.65;;;4.97;;
72801;SDS011;61891;55.818;37.084;2022-10-16T03:23:10;11.35;;;6.85;;
72801;SDS011;61891;55.818;37.084;2022-10-16T03:25:36;13.13;;;6.32;;
72801;SDS011;61891;55.818;37.084;2022-10-16T03:28:02;13.60;;;6.40;;
72801;SDS011;61891;55.818;37.084;2022-10-16T03:30:28;12.68;;;6.30;;
72801;SDS011;61891;55.818;37.084;2022-10-16T03:32:54;13.38;;;6.45;;
72801;SDS011;61891;55.818;37.084;2022-10-16T03:35:20;10.25;;;5.15;;
72801;SDS011;61891;55.818;37.084;2022-10-16T03:37:47;11.18;;;6.22;;
72801;SDS011;61891;55.818;37.084;2022-10-16T03:40:13;12.82;;;6.03;;
72801;SDS011;61891;55.818;37.084;2022-10-16T03:42:39;11.90;;;5.75;;
72801;SDS011;61891;55.818;37.084;2022-10-16T03:45:05;11.65;;;5.72;;
72801;SDS011;61891;55.818;37.084;2022-10-16T03:47:31;10.73;;;5.40;;
72801;SDS011;61891;55.818;37.084;2022-10-16T03:49:58;9.85;;;5.63;;
72801;SDS011;61891;55.818;37.084;2022-10-16T03:52:24;11.00;;;5.93;;
72801;SDS011;61891;55.818;37.084;2022-10-16T03:54:50;14.45;;;6.38;;
72801;SDS011;61891;55.818;37.084;2022-10-16T03:57:16;12.80;;;6.10;;
72801;SDS011;61891;55.818;37.084;2022-10-16T03:59:42;10.80;;;5.80;;
72801;SDS011;61891;55.818;37.084;2022-10-16T04:02:08;9.95;;;5.47;;
72801;SDS011;61891;55.818;37.084;2022-10-16T04:04:34;9.57;;;5.53;;
72801;SDS011;61891;55.818;37.084;2022-10-16T04:07:00;9.73;;;5.50;;
72801;SDS011;61891;55.818;37.084;2022-10-16T04:09:26;10.45;;;5.93;;
72801;SDS011;61891;55.818;37.084;2022-10-16T04:11:51;14.18;;;7.20;;
72801;SDS011;61891;55.818;37.084;2022-10-16T04:14:17;14.27;;;7.43;;
72801;SDS011;61891;55.818;37.084;2022-10-16T04:16:43;16.00;;;7.00;;
72801;SDS011;61891;55.818;37.084;2022-10-16T04:19:09;15.35;;;5.70;;
72801;SDS011;61891;55.818;37.084;2022-10-16T04:21:35;12.57;;;6.85;;
72801;SDS011;61891;55.818;37.084;2022-10-16T04:24:01;11.43;;;5.82;;
72801;SDS011;61891;55.818;37.084;2022-10-16T04:26:27;8.70;;;5.43;;
72801;SDS011;61891;55.818;37.084;2022-10-16T04:28:53;10.10;;;5.43;;
72801;SDS011;61891;55.818;37.084;2022-10-16T04:31:19;9.55;;;5.78;;
72801;SDS011;61891;55.818;37.084;2022-10-16T04:33:45;12.63;;;5.53;;
72801;SDS011;61891;55.818;37.084;2022-10-16T04:36:11;11.27;;;5.40;;
72801;SDS011;61891;55.818;37.084;2022-10-16T04:38:38;13.32;;;6.20;;
72801;SDS011;61891;55.818;37.084;2022-10-16T04:41:06;11.25;;;5.28;;
72801;SDS011;61891;55.818;37.084;2022-10-16T04:43:33;9.93;;;5.40;;
72801;SDS011;61891;55.818;37.084;2022-10-16T04:48:25;10.77;;;5.05;;
72801;SDS011;61891;55.818;37.084;2022-10-16T04:50:50;10.05;;;4.57;;
72801;SDS011;61891;55.818;37.084;2022-10-16T04:53:16;10.45;;;5.50;;
72801;SDS011;61891;55.818;37.084;2022-10-16T04:55:42;10.95;;;5.30;;
72801;SDS011;61891;55.818;37.084;2022-10-16T04:58:08;10.02;;;5.10;;
72801;SDS011;61891;55.818;37.084;2022-10-16T05:00:34;9.40;;;5.55;;
72801;SDS011;61891;55.818;37.084;2022-10-16T05:03:01;9.60;;;5.53;;
72801;SDS011;61891;55.818;37.084;2022-10-16T05:05:27;11.43;;;5.78;;
72801;SDS011;61891;55.818;37.084;2022-10-16T05:07:53;11.30;;;5.38;;
72801;SDS011;61891;55.818;37.084;2022-10-16T05:10:19;11.38;;;5.55;;
72801;SDS011;61891;55.818;37.084;2022-10-16T05:12:45;12.00;;;6.05;;
72801;SDS011;61891;55.818;37.084;2022-10-16T05:15:11;14.25;;;7.25;;
72801;SDS011;61891;55.818;37.084;2022-10-16T05:17:37;13.85;;;6.95;;
72801;SDS011;61891;55.818;37.084;2022-10-16T05:20:03;8.18;;;4.55;;
72801;SDS011;61891;55.818;37.084;2022-10-16T05:22:29;13.85;;;6.10;;
72801;SDS011;61891;55.818;37.084;2022-10-16T05:24:55;12.13;;;6.72;;
72801;SDS011;61891;55.818;37.084;2022-10-16T05:27:21;9.88;;;6.18;;
72801;SDS011;61891;55.818;37.084;2022-10-16T05:29:48;8.48;;;4.78;;
72801;SDS011;61891;55.818;37.084;2022-10-16T05:34:43;8.52;;;4.70;;
72801;SDS011;61891;55.818;37.084;2022-10-16T05:37:10;8.30;;;4.70;;
72801;SDS011;61891;55.818;37.084;2022-10-16T05:39:37;9.65;;;5.10;;
72801;SDS011;61891;55.818;37.084;2022-10-16T05:42:03;8.43;;;4.65;;
72801;SDS011;61891;55.818;37.084;2022-10-16T05:44:30;8.45;;;4.60;;
72801;SDS011;61891;55.818;37.084;2022-10-16T05:46:55;8.15;;;4.60;;
72801;SDS011;61891;55.818;37.084;2022-10-16T05:49:21;9.13;;;5.45;;
72801;SDS011;61891;55.818;37.084;2022-10-16T05:51:47;8.68;;;5.40;;
72801;SDS011;61891;55.818;37.084;2022-10-16T05:54:12;12.40;;;5.95;;
72801;SDS011;61891;55.818;37.084;2022-10-16T05:56:38;13.43;;;5.63;;
72801;SDS011;61891;55.818;37.084;2022-10-16T05:59:04;9.52;;;5.25;;
72801;SDS011;61891;55.818;37.084;2022-10-16T06:01:30;10.40;;;5.40;;
72801;SDS011;61891;55.818;37.084;2022-10-16T06:03:56;9.52;;;4.88;;
72801;SDS011;61891;55.818;37.084;2022-10-16T06:06:24;9.38;;;4.97;;
72801;SDS011;61891;55.818;37.084;2022-10-16T06:08:52;8.30;;;3.97;;
72801;SDS011;61891;55.818;37.084;2022-10-16T06:11:22;6.97;;;4.72;;
72801;SDS011;61891;55.818;37.084;2022-10-16T06:13:49;8.60;;;5.30;;
72801;SDS011;61891;55.818;37.084;2022-10-16T06:16:16;9.30;;;5.43;;
72801;SDS011;61891;55.818;37.084;2022-10-16T06:18:43;7.82;;;5.13;;
72801;SDS011;61891;55.818;37.084;2022-10-16T06:21:09;8.18;;;4.18;;
72801;SDS011;61891;55.818;37.084;2022-10-16T06:23:37;7.82;;;4.43;;
72801;SDS011;61891;55.818;37.084;2022-10-16T06:26:07;14.13;;;6.65;;
72801;SDS011;61891;55.818;37.084;2022-10-16T06:28:39;9.13;;;4.82;;
72801;SDS011;61891;55.818;37.084;2022-10-16T06:31:06;12.23;;;5.78;;
72801;SDS011;61891;55.818;37.084;2022-10-16T06:33:33;5.75;;;3.97;;
72801;SDS011;61891;55.818;37.084;2022-10-16T06:36:01;7.30;;;4.20;;
72801;SDS011;61891;55.818;37.084;2022-10-16T06:38:28;7.72;;;3.80;;
72801;SDS011;61891;55.818;37.084;2022-10-16T06:40:53;8.88;;;4.70;;
72801;SDS011;61891;55.818;37.084;2022-10-16T06:43:21;7.43;;;3.88;;
72801;SDS011;61891;55.818;37.084;2022-10-16T06:45:53;5.10;;;3.30;;
72801;SDS011;61891;55.818;37.084;2022-10-16T06:48:22;3.90;;;1.95;;
72801;SDS011;61891;55.818;37.084;2022-10-16T06:53:22;5.00;;;2.92;;
72801;SDS011;61891;55.818;37.084;2022-10-16T06:55:48;6.10;;;3.13;;
72801;SDS011;61891;55.818;37.084;2022-10-16T06:58:14;9.63;;;3.25;;
72801;SDS011;61891;55.818;37.084;2022-10-16T07:00:40;5.95;;;3.95;;
72801;SDS011;61891;55.818;37.084;2022-10-16T07:03:05;6.07;;;3.72;;
72801;SDS011;61891;55.818;37.084;2022-10-16T07:05:31;9.45;;;3.08;;
72801;SDS011;61891;55.818;37.084;2022-10-16T07:07:57;6.63;;;3.50;;
72801;SDS011;61891;55.818;37.084;2022-10-16T07:10:22;6.13;;;3.15;;
72801;SDS011;61891;55.818;37.084;2022-10-16T07:12:51;7.25;;;3.83;;
72801;SDS011;61891;55.818;37.084;2022-10-16T07:15:17;6.22;;;2.80;;
72801;SDS011;61891;55.818;37.084;2022-10-16T07:17:42;5.72;;;3.40;;
72801;SDS011;61891;55.818;37.084;2022-10-16T07:20:08;7.47;;;3.53;;
72801;SDS011;61891;55.818;37.084;2022-10-16T07:22:34;5.22;;;3.53;;
72801;SDS011;61891;55.818;37.084;2022-10-16T07:25:00;5.60;;;3.35;;
72801;SDS011;61891;55.818;37.084;2022-10-16T07:27:26;8.43;;;3.60;;
72801;SDS011;61891;55.818;37.084;2022-10-16T07:29:51;6.57;;;3.55;;
72801;SDS011;61891;55.818;37.084;2022-10-16T07:32:17;5.88;;;3.40;;
72801;SDS011;61891;55.818;37.084;2022-10-16T07:34:43;6.47;;;3.88;;
72801;SDS011;61891;55.818;37.084;2022-10-16T07:37:09;7.93;;;3.15;;
72801;SDS011;61891;55.818;37.084;2022-10-16T07:39:34;5.25;;;3.05;;
72801;SDS011;61891;55.818;37.084;2022-10-16T07:42:00;6.03;;;3.45;;
72801;SDS011;61891;55.818;37.084;2022-10-16T07:44:26;8.30;;;3.58;;
72801;SDS011;61891;55.818;37.084;2022-10-16T07:46:52;6.32;;;3.17;;
72801;SDS011;61891;55.818;37.084;2022-10-16T07:49:17;5.90;;;2.80;;
72801;SDS011;61891;55.818;37.084;2022-10-16T07:51:43;6.97;;;3.05;;
72801;SDS011;61891;55.818;37.084;2022-10-16T07:54:09;5.65;;;2.83;;
72801;SDS011;61891;55.818;37.084;2022-10-16T07:56:35;6.68;;;3.47;;
72801;SDS011;61891;55.818;37.084;2022-10-16T07:59:01;4.90;;;3.22;;
72801;SDS011;61891;55.818;37.084;2022-10-16T08:01:26;5.50;;;3.08;;
72801;SDS011;61891;55.818;37.084;2022-10-16T08:03:52;5.60;;;3.42;;
72801;SDS011;61891;55.818;37.084;2022-10-16T08:06:19;7.30;;;3.30;;
72801;SDS011;61891;55.818;37.084;2022-10-16T08:08:47;5.95;;;2.65;;
72801;SDS011;61891;55.818;37.084;2022-10-16T08:11:13;5.05;;;2.65;;
72801;SDS011;61891;55.818;37.084;2022-10-16T08:13:40;4.50;;;2.50;;
72801;SDS011;61891;55.818;37.084;2022-10-16T08:16:07;3.63;;;2.05;;
72801;SDS011;61891;55.818;37.084;2022-10-16T08:18:42;5.60;;;2.90;;
72801;SDS011;61891;55.818;37.084;2022-10-16T08:21:12;5.68;;;2.85;;
72801;SDS011;61891;55.818;37.084;2022-10-16T08:23:39;6.05;;;3.10;;
72801;SDS011;61891;55.818;37.084;2022-10-16T08:26:05;3.70;;;1.90;;
72801;SDS011;61891;55.818;37.084;2022-10-16T08:28:33;6.22;;;3.45;;
72801;SDS011;61891;55.818;37.084;2022-10-16T08:31:06;9.77;;;5.07;;
72801;SDS011;61891;55.818;37.084;2022-10-16T08:33:32;6.65;;;3.55;;
72801;SDS011;61891;55.818;37.084;2022-10-16T08:36:00;7.13;;;3.03;;
72801;SDS011;61891;55.818;37.084;2022-10-16T08:38:26;9.00;;;3.20;;
72801;SDS011;61891;55.818;37.084;2022-10-16T08:40:52;6.15;;;3.28;;
72801;SDS011;61891;55.818;37.084;2022-10-16T08:43:43;4.57;;;2.80;;
72801;SDS011;61891;55.818;37.084;2022-10-16T08:48:51;6.65;;;3.10;;
72801;SDS011;61891;55.818;37.084;2022-10-16T08:53:57;6.30;;;2.20;;
72801;SDS011;61891;55.818;37.084;2022-10-16T08:56:26;5.05;;;3.08;;
72801;SDS011;61891;55.818;37.084;2022-10-16T08:58:57;7.28;;;3.13;;
72801;SDS011;61891;55.818;37.084;2022-10-16T09:01:44;4.28;;;2.60;;
72801;SDS011;61891;55.818;37.084;2022-10-16T09:12:32;3.75;;;2.65;;
72801;SDS011;61891;55.818;37.084;2022-10-16T09:23:24;4.63;;;1.80;;
72801;SDS011;61891;55.818;37.084;2022-10-16T09:25:52;5.35;;;2.50;;
72801;SDS011;61891;55.818;37.084;2022-10-16T09:28:19;3.15;;;2.38;;
72801;SDS011;61891;55.818;37.084;2022-10-16T09:30:45;6.30;;;2.40;;
72801;SDS011;61891;55.818;37.084;2022-10-16T09:33:13;5.68;;;2.25;;
72801;SDS011;61891;55.818;37.084;2022-10-16T09:35:48;4.53;;;2.30;;
72801;SDS011;61891;55.818;37.084;2022-10-16T09:40:48;3.00;;;2.05;;
72801;SDS011;61891;55.818;37.084;2022-10-16T09:46:01;6.93;;;3.08;;
72801;SDS011;61891;55.818;37.084;2022-10-16T09:48:43;5.57;;;2.85;;
72801;SDS011;61891;55.818;37.084;2022-10-16T09:56:32;13.25;;;7.20;;
72801;SDS011;61891;55.818;37.084;2022-10-16T09:59:01;8.30;;;4.82;;
72801;SDS011;61891;55.818;37.084;2022-10-16T10:01:44;8.63;;;5.47;;
72801;SDS011;61891;55.818;37.084;2022-10-16T10:04:12;10.90;;;5.07;;
72801;SDS011;61891;55.818;37.084;2022-10-16T10:09:23;8.35;;;4.05;;
72801;SDS011;61891;55.818;37.084;2022-10-16T10:11:52;9.05;;;4.80;;
72801;SDS011;61891;55.818;37.084;2022-10-16T10:16:51;8.90;;;5.65;;
72801;SDS011;61891;55.818;37.084;2022-10-16T10:19:19;5.75;;;3.03;;
72801;SDS011;61891;55.818;37.084;2022-10-16T10:21:47;5.22;;;2.63;;
72801;SDS011;61891;55.818;37.084;2022-10-16T10:24:14;2.85;;;2.45;;
72801;SDS011;61891;55.818;37.084;2022-10-16T10:27:02;9.68;;;4.90;;
72801;SDS011;61891;55.818;37.084;2022-10-16T10:29:51;7.22;;;5.05;;
72801;SDS011;61891;55.818;37.084;2022-10-16T10:35:49;5.95;;;2.97;;
72801;SDS011;61891;55.818;37.084;2022-10-16T10:43:57;5.15;;;3.70;;
72801;SDS011;61891;55.818;37.084;2022-10-16T10:54:19;5.15;;;3.33;;
72801;SDS011;61891;55.818;37.084;2022-10-16T10:57:01;3.95;;;2.83;;
72801;SDS011;61891;55.818;37.084;2022-10-16T11:07:40;5.30;;;3.03;;
72801;SDS011;61891;55.818;37.084;2022-10-16T11:10:18;6.70;;;3.58;;
72801;SDS011;61891;55.818;37.084;2022-10-16T11:12:54;10.45;;;4.20;;
72801;SDS011;61891;55.818;37.084;2022-10-16T11:15:29;5.82;;;4.18;;
72801;SDS011;61891;55.818;37.084;2022-10-16T11:18:08;6.13;;;3.75;;
72801;SDS011;61891;55.818;37.084;2022-10-16T11:20:49;4.85;;;3.17;;
72801;SDS011;61891;55.818;37.084;2022-10-16T11:23:23;5.70;;;3.70;;
72801;SDS011;61891;55.818;37.084;2022-10-16T11:25:57;10.07;;;4.93;;
72801;SDS011;61891;55.818;37.084;2022-10-16T11:28:42;8.20;;;5.68;;
72801;SDS011;61891;55.818;37.084;2022-10-16T11:31:28;6.40;;;4.25;;
72801;SDS011;61891;55.818;37.084;2022-10-16T11:37:02;6.00;;;4.40;;
72801;SDS011;61891;55.818;37.084;2022-10-16T11:39:36;8.15;;;3.88;;
72801;SDS011;61891;55.818;37.084;2022-10-16T11:47:31;3.65;;;2.88;;
72801;SDS011;61891;55.818;37.084;2022-10-16T11:50:23;10.30;;;3.60;;
72801;SDS011;61891;55.818;37.084;2022-10-16T11:55:41;7.65;;;4.45;;
72801;SDS011;61891;55.818;37.084;2022-10-16T12:00:45;8.05;;;4.57;;
72801;SDS011;61891;55.818;37.084;2022-10-16T12:08:50;16.05;;;7.00;;
72801;SDS011;61891;55.818;37.084;2022-10-16T12:11:31;11.30;;;4.97;;
72801;SDS011;61891;55.818;37.084;2022-10-16T12:14:07;5.95;;;3.35;;
72801;SDS011;61891;55.818;37.084;2022-10-16T12:16:33;5.07;;;3.17;;
72801;SDS011;61891;55.818;37.084;2022-10-16T12:19:17;7.72;;;4.15;;
72801;SDS011;61891;55.818;37.084;2022-10-16T12:21:44;11.07;;;5.22;;
72801;SDS011;61891;55.818;37.084;2022-10-16T12:26:58;8.23;;;4.80;;
72801;SDS011;61891;55.818;37.084;2022-10-16T12:32:28;26.02;;;10.65;;
72801;SDS011;61891;55.818;37.084;2022-10-16T12:34:57;27.13;;;13.55;;
72801;SDS011;61891;55.818;37.084;2022-10-16T12:37:31;7.18;;;4.50;;
72801;SDS011;61891;55.818;37.084;2022-10-16T12:40:10;5.75;;;3.70;;
72801;SDS011;61891;55.818;37.084;2022-10-16T12:42:50;18.75;;;8.93;;
72801;SDS011;61891;55.818;37.084;2022-10-16T12:48:02;29.67;;;13.13;;
72801;SDS011;61891;55.818;37.084;2022-10-16T12:53:01;32.13;;;13.35;;
72801;SDS011;61891;55.818;37.084;2022-10-16T12:55:34;18.35;;;9.60;;
72801;SDS011;61891;55.818;37.084;2022-10-16T12:58:20;100.75;;;37.83;;
72801;SDS011;61891;55.818;37.084;2022-10-16T13:00:54;134.13;;;53.38;;
72801;SDS011;61891;55.818;37.084;2022-10-16T13:09:29;119.47;;;48.85;;
72801;SDS011;61891;55.818;37.084;2022-10-16T13:27:38;16.58;;;7.15;;
72801;SDS011;61891;55.818;37.084;2022-10-16T13:30:24;26.92;;;10.10;;
72801;SDS011;61891;55.818;37.084;2022-10-16T13:33:04;54.92;;;21.20;;
72801;SDS011;61891;55.818;37.084;2022-10-16T13:35:46;18.30;;;8.00;;
72801;SDS011;61891;55.818;37.084;2022-10-16T13:38:18;28.65;;;11.65;;
72801;SDS011;61891;55.818;37.084;2022-10-16T13:45:53;10.88;;;4.93;;
72801;SDS011;61891;55.818;37.084;2022-10-16T13:48:30;9.02;;;4.30;;
72801;SDS011;61891;55.818;37.084;2022-10-16T13:53:36;12.02;;;6.50;;
72801;SDS011;61891;55.818;37.084;2022-10-16T13:58:29;5.47;;;3.80;;
72801;SDS011;61891;55.818;37.084;2022-10-16T14:00:56;9.05;;;4.47;;
72801;SDS011;61891;55.818;37.084;2022-10-16T14:03:27;10.05;;;4.65;;
72801;SDS011;61891;55.818;37.084;2022-10-16T14:05:59;6.95;;;4.18;;
72801;SDS011;61891;55.818;37.084;2022-10-16T14:08:27;6.55;;;4.97;;
72801;SDS011;61891;55.818;37.084;2022-10-16T14:10:58;12.10;;;7.82;;
72801;SDS011;61891;55.818;37.084;2022-10-16T14:13:29;30.42;;;17.77;;
72801;SDS011;61891;55.818;37.084;2022-10-16T14:16:00;25.83;;;14.75;;
72801;SDS011;61891;55.818;37.084;2022-10-16T14:18:33;17.00;;;9.30;;
72801;SDS011;61891;55.818;37.084;2022-10-16T14:21:03;27.90;;;15.52;;
72801;SDS011;61891;55.818;37.084;2022-10-16T14:23:32;32.47;;;14.55;;
72801;SDS011;61891;55.818;37.084;2022-10-16T14:26:06;56.28;;;24.00;;
72801;SDS011;61891;55.818;37.084;2022-10-16T14:28:39;22.60;;;11.25;;
72801;SDS011;61891;55.818;37.084;2022-10-16T14:33:55;8.68;;;4.45;;
72801;SDS011;61891;55.818;37.084;2022-10-16T14:36:21;5.95;;;3.67;;
72801;SDS011;61891;55.818;37.084;2022-10-16T14:38:49;7.38;;;4.03;;
72801;SDS011;61891;55.818;37.084;2022-10-16T14:41:21;7.82;;;4.15;;
72801;SDS011;61891;55.818;37.084;2022-10-16T14:43:53;9.30;;;4.40;;
72801;SDS011;61891;55.818;37.084;2022-10-16T14:49:19;8.52;;;4.28;;
72801;SDS011;61891;55.818;37.084;2022-10-16T14:51:47;7.32;;;4.40;;
72801;SDS011;61891;55.818;37.084;2022-10-16T14:54:13;5.85;;;3.83;;
72801;SDS011;61891;55.818;37.084;2022-10-16T14:56:43;6.97;;;3.80;;
72801;SDS011;61891;55.818;37.084;2022-10-16T14:59:17;7.57;;;4.00;;
72801;SDS011;61891;55.818;37.084;2022-10-16T15:01:46;9.20;;;5.13;;
72801;SDS011;61891;55.818;37.084;2022-10-16T15:04:12;8.70;;;4.38;;
72801;SDS011;61891;55.818;37.084;2022-10-16T15:06:39;8.85;;;4.65;;
72801;SDS011;61891;55.818;37.084;2022-10-16T15:09:05;10.50;;;4.18;;
72801;SDS011;61891;55.818;37.084;2022-10-16T15:11:31;10.02;;;4.95;;
72801;SDS011;61891;55.818;37.084;2022-10-16T15:13:58;9.07;;;4.40;;
72801;SDS011;61891;55.818;37.084;2022-10-16T15:16:24;9.98;;;5.22;;
72801;SDS011;61891;55.818;37.084;2022-10-16T15:18:49;8.15;;;4.57;;
72801;SDS011;61891;55.818;37.084;2022-10-16T15:21:29;11.70;;;5.88;;
72801;SDS011;61891;55.818;37.084;2022-10-16T15:23:56;14.50;;;6.07;;
72801;SDS011;61891;55.818;37.084;2022-10-16T15:26:24;11.63;;;6.20;;
72801;SDS011;61891;55.818;37.084;2022-10-16T15:28:51;13.20;;;6.72;;
72801;SDS011;61891;55.818;37.084;2022-10-16T15:31:16;17.83;;;8.15;;
72801;SDS011;61891;55.818;37.084;2022-10-16T15:33:42;15.60;;;7.38;;
72801;SDS011;61891;55.818;37.084;2022-10-16T15:36:08;15.65;;;6.55;;
72801;SDS011;61891;55.818;37.084;2022-10-16T15:38:34;12.18;;;5.90;;
72801;SDS011;61891;55.818;37.084;2022-10-16T15:41:00;15.73;;;7.68;;
72801;SDS011;61891;55.818;37.084;2022-10-16T15:43:26;17.63;;;7.57;;
72801;SDS011;61891;55.818;37.084;2022-10-16T15:46:03;17.77;;;7.43;;
72801;SDS011;61891;55.818;37.084;2022-10-16T15:48:31;17.08;;;7.78;;
72801;SDS011;61891;55.818;37.084;2022-10-16T15:50:59;19.00;;;7.13;;
72801;SDS011;61891;55.818;37.084;2022-10-16T15:53:25;23.05;;;9.82;;
72801;SDS011;61891;55.818;37.084;2022-10-16T15:55:51;18.15;;;8.20;;
72801;SDS011;61891;55.818;37.084;2022-10-16T15:58:16;14.07;;;6.70;;
72801;SDS011;61891;55.818;37.084;2022-10-16T16:00:43;20.10;;;8.45;;
72801;SDS011;61891;55.818;37.084;2022-10-16T16:03:10;20.38;;;9.15;;
72801;SDS011;61891;55.818;37.084;2022-10-16T16:05:37;14.02;;;6.50;;
72801;SDS011;61891;55.818;37.084;2022-10-16T16:08:04;16.67;;;5.63;;
72801;SDS011;61891;55.818;37.084;2022-10-16T16:10:30;20.00;;;9.10;;
72801;SDS011;61891;55.818;37.084;2022-10-16T16:12:55;16.77;;;8.50;;
72801;SDS011;61891;55.818;37.084;2022-10-16T16:15:22;13.70;;;6.20;;
72801;SDS011;61891;55.818;37.084;2022-10-16T16:17:48;15.48;;;6.75;;
72801;SDS011;61891;55.818;37.084;2022-10-16T16:20:14;14.88;;;6.80;;
72801;SDS011;61891;55.818;37.084;2022-10-16T16:22:40;15.40;;;7.75;;
72801;SDS011;61891;55.818;37.084;2022-10-16T16:25:06;11.52;;;5.93;;
72801;SDS011;61891;55.818;37.084;2022-10-16T16:27:32;11.15;;;6.05;;
72801;SDS011;61891;55.818;37.084;2022-10-16T16:30:00;11.02;;;6.10;;
72801;SDS011;61891;55.818;37.084;2022-10-16T16:32:30;12.18;;;6.30;;
72801;SDS011;61891;55.818;37.084;2022-10-16T16:34:55;12.13;;;6.72;;
72801;SDS011;61891;55.818;37.084;2022-10-16T16:37:21;14.02;;;7.30;;
72801;SDS011;61891;55.818;37.084;2022-10-16T16:39:47;11.95;;;6.38;;
72801;SDS011;61891;55.818;37.084;2022-10-16T16:42:12;12.38;;;6.00;;
72801;SDS011;61891;55.818;37.084;2022-10-16T16:44:38;13.02;;;6.68;;
72801;SDS011;61891;55.818;37.084;2022-10-16T16:47:04;13.13;;;6.72;;
72801;SDS011;61891;55.818;37.084;2022-10-16T16:49:31;16.67;;;6.13;;
72801;SDS011;61891;55.818;37.084;2022-10-16T16:51:57;11.55;;;4.97;;
72801;SDS011;61891;55.818;37.084;2022-10-16T16:54:23;10.98;;;5.30;;
72801;SDS011;61891;55.818;37.084;2022-10-16T16:56:49;10.00;;;4.00;;
72801;SDS011;61891;55.818;37.084;2022-10-16T16:59:16;12.75;;;5.70;;
72801;SDS011;61891;55.818;37.084;2022-10-16T17:01:45;9.68;;;5.07;;
72801;SDS011;61891;55.818;37.084;2022-10-16T17:04:11;12.02;;;6.25;;
72801;SDS011;61891;55.818;37.084;2022-10-16T17:06:40;8.60;;;5.32;;
72801;SDS011;61891;55.818;37.084;2022-10-16T17:09:07;14.70;;;6.03;;
72801;SDS011;61891;55.818;37.084;2022-10-16T17:11:33;8.57;;;4.93;;
72801;SDS011;61891;55.818;37.084;2022-10-16T17:13:59;11.93;;;5.75;;
72801;SDS011;61891;55.818;37.084;2022-10-16T17:16:27;6.50;;;3.78;;
72801;SDS011;61891;55.818;37.084;2022-10-16T17:18:55;10.00;;;4.20;;